Maran Gas Achilles — SVCD3 — position and weather

sailwx.info

Track history (hours):
 
Tides and Currents Weather Stations Pressure Air Temp Water Temp Dewpoint Dewpoint Depression Visibility Wind Speed Wind Dir Waves Ship Positions

Maran Gas Achilles

Last reported at 2017-Oct-18 13:28 UTC. Time now 2017-Oct-20 19:30 UTC.
Position N 29°45' W 093°52'.

Length 290 m; draft 9.4 m.

Type: Ship. MMSI: 241365000.

Date/timePositionNaut miles runAvg speedWind from/ knotsBaromVisibWave heightAir tempDewpointWater temp
2017-Oct-18 13:28N 29°45' W 093°52'2 3.9
2017-Oct-18 13:00N 29°43' W 093°51'910.4
2017-Oct-18 12:09N 29°35' W 093°47'313.0
2017-Oct-18 11:54N 29°33' W 093°44'28 9.4
2017-Oct-18 08:52N 29°05' W 093°37'713.7
2017-Oct-18 08:20N 28°59' W 093°32'513.8
2017-Oct-18 07:57N 28°55' W 093°29'  
2017-Oct-16 01:51N 25°17' W 079°46'617.4
2017-Oct-16 01:30N 25°23' W 079°44'917.6
2017-Oct-16 01:01N 25°31' W 079°40'917.7
2017-Oct-16 00:31N 25°39' W 079°39'917.2
2017-Oct-16 00:01N 25°48' W 079°38'815.7
2017-Oct-15 23:31N 25°56' W 079°37'815.7
2017-Oct-15 23:01N 26°02' W 079°32'816.1
2017-Oct-15 22:30N 26°09' W 079°26'816.4
2017-Oct-15 22:00N 26°15' W 079°20'  
Track history (hours):
 
Tides and Currents Weather Stations Pressure Air Temp Water Temp Dewpoint Dewpoint Depression Visibility Wind Speed Wind Dir Waves Ship Positions

Maran Gas Achilles

Last reported at 2017-Oct-18 13:28 UTC. Time now 2017-Oct-20 19:30 UTC.
Position N 29°45' W 093°52'.

Length 290 m; draft 9.4 m.

Type: Ship. MMSI: 241365000.

Date/timePositionNaut miles runAvg speedWind from/ knotsBaromVisibWave heightAir tempDewpointWater temp
2017-Oct-18 13:28N 29°45' W 093°52'2 3.9
2017-Oct-18 13:00N 29°43' W 093°51'910.4
2017-Oct-18 12:09N 29°35' W 093°47'313.0
2017-Oct-18 11:54N 29°33' W 093°44'28 9.4
2017-Oct-18 08:52N 29°05' W 093°37'713.7
2017-Oct-18 08:20N 28°59' W 093°32'513.8
2017-Oct-18 07:57N 28°55' W 093°29'  
2017-Oct-16 01:51N 25°17' W 079°46'617.4
2017-Oct-16 01:30N 25°23' W 079°44'917.6
2017-Oct-16 01:01N 25°31' W 079°40'917.7
2017-Oct-16 00:31N 25°39' W 079°39'917.2
2017-Oct-16 00:01N 25°48' W 079°38'815.7
2017-Oct-15 23:31N 25°56' W 079°37'815.7
2017-Oct-15 23:01N 26°02' W 079°32'816.1
2017-Oct-15 22:30N 26°09' W 079°26'816.4
2017-Oct-15 22:00N 26°15' W 079°20'  

Dump ship's entire track history